Time;durP1;ratioP1;P1;durP2;ratioP2;P2;SDS_P1;SDS_P2;PMS_P1;PMS_P2;Temp;Humidity;BMP_temperature;BMP_pressure;BME280_temperature;BME280_humidity;BME280_pressure;Samples;Min_cycle;Max_cycle;Signal;HPM_P1;HPM_P2
2021/03/21 00:01:28;;;;;;;5.03;2.65;;;;;;;;;;5116877;28;20472;-53
2021/03/21 00:03:54;;;;;;;5.00;2.78;;;;;;;;;;5116630;28;20031;-53
2021/03/21 00:06:20;;;;;;;13.88;4.43;;;;;;;;;;5116929;28;20039;-53
2021/03/21 00:08:48;;;;;;;13.63;4.60;;;;;;;;;;5116570;28;20463;-53
2021/03/21 00:11:14;;;;;;;11.18;5.40;;;;;;;;;;5116650;27;20357;-53
2021/03/21 00:13:40;;;;;;;7.22;3.78;;;;;;;;;;5116645;27;20023;-53
2021/03/21 00:16:07;;;;;;;5.38;2.83;;;;;;;;;;5116516;27;20027;-53
2021/03/21 00:18:35;;;;;;;6.05;2.80;;;;;;;;;;5116275;28;20020;-53
2021/03/21 00:21:01;;;;;;;7.38;3.17;;;;;;;;;;5105604;28;20031;-53
2021/03/21 00:23:27;;;;;;;8.90;3.03;;;;;;;;;;5094628;28;20106;-53
2021/03/21 00:25:53;;;;;;;6.55;2.85;;;;;;;;;;5096513;28;20115;-53
2021/03/21 00:28:21;;;;;;;5.72;3.03;;;;;;;;;;5095295;28;20034;-53
2021/03/21 00:30:48;;;;;;;5.45;2.53;;;;;;;;;;5094372;28;20024;-53
2021/03/21 00:33:16;;;;;;;4.93;2.70;;;;;;;;;;5096099;28;20024;-53
2021/03/21 00:35:42;;;;;;;6.60;2.70;;;;;;;;;;5096248;28;20074;-53
2021/03/21 00:38:10;;;;;;;5.88;2.88;;;;;;;;;;5095767;28;20024;-53
2021/03/21 00:40:36;;;;;;;5.03;2.58;;;;;;;;;;5095839;28;20138;-53
2021/03/21 00:43:02;;;;;;;4.05;2.20;;;;;;;;;;5095725;28;20036;-53
2021/03/21 00:45:29;;;;;;;3.17;1.98;;;;;;;;;;5094290;28;20377;-53
2021/03/21 00:47:55;;;;;;;5.35;2.58;;;;;;;;;;5095303;28;20054;-53
2021/03/21 00:50:24;;;;;;;6.25;2.13;;;;;;;;;;5094431;28;20435;-52
2021/03/21 00:52:50;;;;;;;5.05;2.45;;;;;;;;;;5095721;28;20024;-53
2021/03/21 00:55:16;;;;;;;7.05;2.88;;;;;;;;;;5095431;28;20103;-53
2021/03/21 00:57:42;;;;;;;5.28;2.67;;;;;;;;;;5094958;28;20020;-53
2021/03/21 01:00:16;;;;;;;4.35;2.35;;;;;;;;;;5095449;28;20020;-53
2021/03/21 01:02:42;;;;;;;8.68;2.80;;;;;;;;;;5095370;28;20513;-53
2021/03/21 01:05:13;;;;;;;9.13;3.47;;;;;;;;;;5095378;28;20032;-53
2021/03/21 01:07:39;;;;;;;3.40;2.50;;;;;;;;;;5095177;28;20042;-53
2021/03/21 01:10:05;;;;;;;3.60;2.38;;;;;;;;;;5095067;28;20024;-53
2021/03/21 01:12:31;;;;;;;3.50;2.22;;;;;;;;;;5094902;28;20031;-53
2021/03/21 01:14:57;;;;;;;2.30;1.92;;;;;;;;;;5095026;28;20028;-53
2021/03/21 01:17:23;;;;;;;4.53;2.63;;;;;;;;;;5095056;28;20060;-53
2021/03/21 01:19:49;;;;;;;9.80;2.00;;;;;;;;;;5094723;28;20036;-53
2021/03/21 01:22:15;;;;;;;2.58;1.70;;;;;;;;;;5095008;28;20012;-53
2021/03/21 01:24:41;;;;;;;6.03;2.72;;;;;;;;;;5094919;28;20402;-52
2021/03/21 01:27:07;;;;;;;4.80;2.47;;;;;;;;;;5094358;28;20446;-53
2021/03/21 01:29:33;;;;;;;8.82;2.58;;;;;;;;;;5094679;28;20096;-53
2021/03/21 01:31:59;;;;;;;3.95;2.40;;;;;;;;;;5094866;28;20078;-53
2021/03/21 01:34:25;;;;;;;4.43;2.22;;;;;;;;;;5094774;28;20028;-53
2021/03/21 01:36:51;;;;;;;5.45;2.85;;;;;;;;;;5095178;28;20102;-53
2021/03/21 01:39:27;;;;;;;5.53;3.05;;;;;;;;;;5094202;28;20381;-53
2021/03/21 01:41:55;;;;;;;3.83;2.70;;;;;;;;;;5094453;28;20808;-53
2021/03/21 01:44:21;;;;;;;3.67;2.60;;;;;;;;;;5094559;28;20031;-53
2021/03/21 01:46:53;;;;;;;5.15;2.88;;;;;;;;;;5094523;28;20032;-52
2021/03/21 01:49:22;;;;;;;5.90;3.13;;;;;;;;;;5093062;28;20095;-53
2021/03/21 01:51:49;;;;;;;7.07;2.97;;;;;;;;;;5094403;28;20028;-53
2021/03/21 01:54:17;;;;;;;6.07;2.80;;;;;;;;;;5094329;28;20111;-53
2021/03/21 01:56:44;;;;;;;6.25;3.15;;;;;;;;;;5094318;28;20024;-53
2021/03/21 01:59:11;;;;;;;5.35;2.60;;;;;;;;;;5094057;28;20028;-53
2021/03/21 02:01:38;;;;;;;9.93;3.10;;;;;;;;;;5094245;28;20035;-53
2021/03/21 02:04:04;;;;;;;6.63;2.22;;;;;;;;;;5094266;28;20020;-53
2021/03/21 02:06:33;;;;;;;5.13;2.10;;;;;;;;;;5093811;28;20043;-53
2021/03/21 02:08:59;;;;;;;5.50;2.72;;;;;;;;;;5093897;28;20036;-53
2021/03/21 02:11:29;;;;;;;6.13;3.13;;;;;;;;;;5094175;28;20060;-53
2021/03/21 02:14:17;;;;;;;6.00;2.70;;;;;;;;;;5094161;28;20012;-53
2021/03/21 02:16:46;;;;;;;4.18;2.75;;;;;;;;;;5093654;28;20027;-52
2021/03/21 02:19:21;;;;;;;6.30;3.20;;;;;;;;;;5094002;28;20032;-53
2021/03/21 02:21:47;;;;;;;5.00;2.72;;;;;;;;;;5093751;28;20137;-53
2021/03/21 02:24:25;;;;;;;4.97;2.42;;;;;;;;;;5093887;28;20107;-53
2021/03/21 02:27:03;;;;;;;4.18;2.50;;;;;;;;;;5093770;28;20452;-52
2021/03/21 02:29:29;;;;;;;5.55;3.20;;;;;;;;;;5093576;28;20398;-52
2021/03/21 02:31:58;;;;;;;2.92;2.30;;;;;;;;;;5093845;28;20028;-53
2021/03/21 02:34:36;;;;;;;4.28;2.38;;;;;;;;;;5093712;28;20028;-52
2021/03/21 02:37:09;;;;;;;4.68;2.47;;;;;;;;;;5093343;28;20035;-53
2021/03/21 02:39:56;;;;;;;6.07;2.58;;;;;;;;;;5093681;28;20069;-53
2021/03/21 02:42:32;;;;;;;5.75;2.75;;;;;;;;;;5093233;28;20036;-53
2021/03/21 02:45:02;;;;;;;6.72;2.80;;;;;;;;;;5093450;28;20028;-53
2021/03/21 02:47:28;;;;;;;;;;;;;;;;;;5093651;28;20334;-53
2021/03/21 02:49:56;;;;;;;6.10;2.50;;;;;;;;;;5093554;28;19911;-53
2021/03/21 02:52:25;;;;;;;6.75;3.05;;;;;;;;;;5092256;28;20020;-53
2021/03/21 02:55:01;;;;;;;3.90;2.30;;;;;;;;;;5093528;28;20570;-53
2021/03/21 02:57:29;;;;;;;5.35;2.63;;;;;;;;;;5093175;28;20020;-53
2021/03/21 02:59:56;;;;;;;4.07;2.28;;;;;;;;;;5093549;28;20020;-53
2021/03/21 03:02:38;;;;;;;8.02;2.88;;;;;;;;;;5092654;28;20020;-53
2021/03/21 03:05:13;;;;;;;4.30;2.20;;;;;;;;;;5097432;28;20031;-53
2021/03/21 03:07:41;;;;;;;6.00;2.88;;;;;;;;;;5113057;28;20038;-53
2021/03/21 03:10:11;;;;;;;5.10;2.92;;;;;;;;;;5113199;28;20031;-54
2021/03/21 03:12:37;;;;;;;;;;;;;;;;;;5114099;28;20107;-54
2021/03/21 03:15:11;;;;;;;5.53;2.70;;;;;;;;;;5113270;28;19991;-54
2021/03/21 03:17:41;;;;;;;5.07;2.35;;;;;;;;;;5113445;28;20032;-54
2021/03/21 03:20:25;;;;;;;3.70;1.95;;;;;;;;;;5109990;28;20024;-54
2021/03/21 03:22:53;;;;;;;4.40;2.25;;;;;;;;;;5104466;28;20405;-53
2021/03/21 03:25:28;;;;;;;7.93;2.80;;;;;;;;;;5108910;28;20503;-54
2021/03/21 03:28:13;;;;;;;7.70;2.90;;;;;;;;;;5092948;28;20409;-54
2021/03/21 03:30:44;;;;;;;5.93;2.67;;;;;;;;;;5092953;28;20043;-53
2021/03/21 03:33:10;;;;;;;8.50;2.40;;;;;;;;;;5092435;28;20024;-53
2021/03/21 03:35:36;;;;;;;6.18;2.80;;;;;;;;;;5093045;28;20031;-53
2021/03/21 03:38:03;;;;;;;3.35;2.03;;;;;;;;;;5092708;28;20035;-53
2021/03/21 03:40:29;;;;;;;5.70;2.80;;;;;;;;;;5092881;28;20042;-53
2021/03/21 03:43:16;;;;;;;5.40;2.83;;;;;;;;;;5092922;28;20339;-54
2021/03/21 03:45:50;;;;;;;2.67;2.10;;;;;;;;;;5092510;28;20048;-53
2021/03/21 03:48:16;;;;;;;6.47;2.75;;;;;;;;;;5092809;28;20111;-53
2021/03/21 03:50:51;;;;;;;3.97;2.85;;;;;;;;;;5092690;28;20067;-53
2021/03/21 03:53:20;;;;;;;4.65;2.17;;;;;;;;;;5093033;28;20024;-53
2021/03/21 03:55:46;;;;;;;4.80;2.47;;;;;;;;;;5092705;28;20035;-53
2021/03/21 03:58:17;;;;;;;5.40;2.60;;;;;;;;;;5092296;28;20017;-53
2021/03/21 04:00:51;;;;;;;4.05;2.03;;;;;;;;;;5092506;28;20040;-53
2021/03/21 04:03:36;;;;;;;7.95;2.72;;;;;;;;;;5092857;28;20465;-53
2021/03/21 04:06:07;;;;;;;5.25;2.28;;;;;;;;;;5096857;28;20432;-53
2021/03/21 04:08:44;;;;;;;8.63;2.83;;;;;;;;;;5095890;28;20024;-53
2021/03/21 04:11:19;;;;;;;7.45;2.55;;;;;;;;;;5096262;28;20470;-54
2021/03/21 04:13:47;;;;;;;5.50;2.28;;;;;;;;;;5096648;28;20100;-53
2021/03/21 04:16:16;;;;;;;8.70;3.00;;;;;;;;;;5096083;28;20454;-53
2021/03/21 04:18:54;;;;;;;4.35;2.20;;;;;;;;;;5096035;28;20107;-53
2021/03/21 04:21:27;;;;;;;3.30;2.00;;;;;;;;;;5096265;28;20039;-54
2021/03/21 04:23:54;;;;;;;8.52;2.40;;;;;;;;;;5096162;28;20027;-53
2021/03/21 04:26:22;;;;;;;4.57;2.38;;;;;;;;;;5095960;28;20032;-53
2021/03/21 04:28:51;;;;;;;15.30;3.40;;;;;;;;;;5095735;28;20410;-54
2021/03/21 04:31:19;;;;;;;4.90;2.25;;;;;;;;;;5095597;28;20021;-54
2021/03/21 04:33:48;;;;;;;7.45;2.80;;;;;;;;;;5094573;28;20028;-53
2021/03/21 04:36:14;;;;;;;6.05;2.85;;;;;;;;;;5095871;28;20471;-54
2021/03/21 04:38:42;;;;;;;5.93;2.90;;;;;;;;;;5094059;28;20036;-53
2021/03/21 04:41:10;;;;;;;4.10;2.53;;;;;;;;;;5095816;28;20480;-53
2021/03/21 04:43:48;;;;;;;7.57;2.58;;;;;;;;;;5095597;28;20485;-54
2021/03/21 04:46:17;;;;;;;5.43;2.78;;;;;;;;;;5095725;28;20028;-54
2021/03/21 04:48:43;;;;;;;6.05;2.70;;;;;;;;;;5095496;28;20016;-54
2021/03/21 04:51:16;;;;;;;4.38;2.78;;;;;;;;;;5095294;28;20103;-54
2021/03/21 04:53:42;;;;;;;4.15;2.38;;;;;;;;;;5095555;28;20095;-53
2021/03/21 04:56:20;;;;;;;4.30;2.47;;;;;;;;;;5095571;28;20032;-54
2021/03/21 04:58:50;;;;;;;4.18;2.53;;;;;;;;;;5095246;28;20073;-54
2021/03/21 05:01:16;;;;;;;;;;;;;;;;;;5095960;28;20346;-53
2021/03/21 05:03:44;;;;;;;4.00;2.22;;;;;;;;;;5095146;28;19904;-53
2021/03/21 05:06:17;;;;;;;6.05;2.40;;;;;;;;;;5093850;28;20389;-54
2021/03/21 05:08:57;;;;;;;6.22;2.70;;;;;;;;;;5095268;28;20077;-53
2021/03/21 05:11:26;;;;;;;4.70;2.58;;;;;;;;;;5093820;28;20369;-53
2021/03/21 05:13:56;;;;;;;4.28;2.42;;;;;;;;;;5095039;28;20103;-54
2021/03/21 05:16:27;;;;;;;4.60;2.70;;;;;;;;;;5094648;28;20449;-54
2021/03/21 05:18:59;;;;;;;4.72;2.80;;;;;;;;;;5094795;28;20164;-54
2021/03/21 05:21:27;;;;;;;6.05;2.58;;;;;;;;;;5095004;28;20055;-53
2021/03/21 05:24:03;;;;;;;3.38;2.03;;;;;;;;;;5095009;28;20034;-54
2021/03/21 05:26:29;;;;;;;6.35;2.63;;;;;;;;;;5094659;28;20043;-53
2021/03/21 05:28:54;;;;;;;6.95;3.00;;;;;;;;;;5094200;28;20024;-53
2021/03/21 05:31:21;;;;;;;5.07;2.92;;;;;;;;;;5094750;28;20032;-53
2021/03/21 05:33:47;;;;;;;3.45;1.73;;;;;;;;;;5095005;28;20035;-53
2021/03/21 05:36:19;;;;;;;3.85;1.90;;;;;;;;;;5094739;28;20017;-53
2021/03/21 05:38:59;;;;;;;2.65;1.80;;;;;;;;;;5094486;28;20042;-53
2021/03/21 05:41:43;;;;;;;5.57;2.40;;;;;;;;;;5094379;28;20472;-54
2021/03/21 05:44:24;;;;;;;6.47;2.50;;;;;;;;;;5094751;28;20063;-54
2021/03/21 05:46:50;;;;;;;;;;;;;;;;;;5095040;28;20040;-54
2021/03/21 05:49:34;;;;;;;3.13;2.13;;;;;;;;;;5094212;28;19910;-54
2021/03/21 05:52:03;;;;;;;4.35;2.42;;;;;;;;;;5094445;28;20031;-53
2021/03/21 05:54:48;;;;;;;4.13;2.30;;;;;;;;;;5094652;28;20354;-53
2021/03/21 05:57:32;;;;;;;4.05;2.45;;;;;;;;;;5094049;28;20107;-54
2021/03/21 06:00:11;;;;;;;5.07;2.65;;;;;;;;;;5094059;28;20334;-54
2021/03/21 06:02:40;;;;;;;6.72;2.53;;;;;;;;;;5094178;28;20572;-53
2021/03/21 06:05:25;;;;;;;6.28;3.05;;;;;;;;;;5094182;28;20107;-54
2021/03/21 06:08:12;;;;;;;7.20;3.00;;;;;;;;;;5093867;28;20019;-54
2021/03/21 06:10:57;;;;;;;5.72;2.30;;;;;;;;;;5099256;28;20114;-54
2021/03/21 06:13:46;;;;;;;4.88;2.47;;;;;;;;;;5104312;28;20060;-54
2021/03/21 06:16:15;;;;;;;4.90;2.67;;;;;;;;;;5104761;28;20023;-54
2021/03/21 06:18:46;;;;;;;4.65;2.75;;;;;;;;;;5093245;28;20024;-54
2021/03/21 06:21:15;;;;;;;4.15;2.67;;;;;;;;;;5106383;28;20461;-54
2021/03/21 06:24:00;;;;;;;5.38;2.05;;;;;;;;;;5105342;28;20517;-53
2021/03/21 06:26:33;;;;;;;4.75;2.55;;;;;;;;;;5093666;28;20040;-54
2021/03/21 06:29:17;;;;;;;5.63;2.20;;;;;;;;;;5092641;28;20020;-54
2021/03/21 06:32:02;;;;;;;4.53;3.05;;;;;;;;;;5093987;28;20149;-53
2021/03/21 06:34:28;;;;;;;5.65;2.67;;;;;;;;;;5093682;28;20103;-53
2021/03/21 06:36:57;;;;;;;3.83;2.22;;;;;;;;;;5093488;28;20116;-54
2021/03/21 06:39:35;;;;;;;7.40;2.45;;;;;;;;;;5093400;28;20031;-54
2021/03/21 06:42:08;;;;;;;3.15;1.90;;;;;;;;;;5108040;28;20376;-54
2021/03/21 06:44:39;;;;;;;5.68;2.33;;;;;;;;;;5114108;28;20419;-53
2021/03/21 06:47:14;;;;;;;2.90;2.00;;;;;;;;;;5113571;28;20072;-54
2021/03/21 06:49:59;;;;;;;5.00;2.38;;;;;;;;;;5113906;28;20095;-54
2021/03/21 06:52:34;;;;;;;5.18;2.00;;;;;;;;;;5113990;28;20032;-53
2021/03/21 06:55:00;;;;;;;5.25;2.25;;;;;;;;;;5114026;28;20164;-54
2021/03/21 06:57:35;;;;;;;5.68;2.70;;;;;;;;;;5105279;28;20091;-53
2021/03/21 07:00:19;;;;;;;4.22;1.75;;;;;;;;;;5102067;28;20028;-53
2021/03/21 07:03:04;;;;;;;4.13;2.30;;;;;;;;;;5102625;28;20032;-53
2021/03/21 07:05:33;;;;;;;4.57;2.60;;;;;;;;;;5103287;28;20040;-54
2021/03/21 07:07:59;;;;;;;6.72;2.85;;;;;;;;;;5101438;28;20061;-53
2021/03/21 07:10:34;;;;;;;6.53;2.35;;;;;;;;;;5103460;28;20020;-53
2021/03/21 07:13:09;;;;;;;5.88;2.17;;;;;;;;;;5103603;28;20026;-53
2021/03/21 07:16:01;;;;;;;5.47;2.90;;;;;;;;;;5103926;28;20104;-53
2021/03/21 07:18:36;;;;;;;4.75;2.55;;;;;;;;;;5110137;28;20024;-53
2021/03/21 07:21:16;;;;;;;4.70;2.50;;;;;;;;;;5102280;28;20468;-53
2021/03/21 07:23:56;;;;;;;9.25;2.72;;;;;;;;;;5095723;28;20059;-54
2021/03/21 07:26:28;;;;;;;6.13;3.28;;;;;;;;;;5101029;28;20024;-54
2021/03/21 07:29:03;;;;;;;5.45;2.80;;;;;;;;;;5092773;28;20024;-53
2021/03/21 07:31:38;;;;;;;5.22;2.33;;;;;;;;;;5092880;28;20030;-53
2021/03/21 07:34:07;;;;;;;5.07;2.95;;;;;;;;;;5092999;28;20035;-54
2021/03/21 07:36:52;;;;;;;4.38;2.25;;;;;;;;;;5093020;28;20067;-53
2021/03/21 07:39:21;;;;;;;3.42;2.13;;;;;;;;;;5094804;28;20032;-53
2021/03/21 07:41:46;;;;;;;3.25;2.15;;;;;;;;;;5097211;28;20020;-53
2021/03/21 07:44:20;;;;;;;4.10;2.50;;;;;;;;;;5096550;28;20020;-53
2021/03/21 07:46:46;;;;;;;6.05;3.08;;;;;;;;;;5096944;28;20040;-53
2021/03/21 07:49:21;;;;;;;4.45;2.80;;;;;;;;;;5096670;28;20025;-53
2021/03/21 07:51:47;;;;;;;5.88;2.63;;;;;;;;;;5096915;28;20457;-53
2021/03/21 07:54:31;;;;;;;4.85;2.58;;;;;;;;;;5109051;28;20059;-53
2021/03/21 07:57:00;;;;;;;6.88;2.47;;;;;;;;;;5105087;28;20037;-53
2021/03/21 07:59:31;;;;;;;6.13;2.97;;;;;;;;;;5106414;28;20349;-53
2021/03/21 08:01:57;;;;;;;5.90;3.08;;;;;;;;;;5104289;28;20028;-53
2021/03/21 08:04:32;;;;;;;7.20;2.90;;;;;;;;;;5106848;28;20031;-53
2021/03/21 08:07:02;;;;;;;6.68;2.58;;;;;;;;;;5104762;28;20050;-53
2021/03/21 08:09:28;;;;;;;;;;;;;;;;;;5107553;28;20008;-53
2021/03/21 08:11:58;;;;;;;5.15;2.45;;;;;;;;;;5098801;28;19912;-53
2021/03/21 08:14:29;;;;;;;5.50;2.80;;;;;;;;;;5103459;27;20469;-54
2021/03/21 08:16:57;;;;;;;3.67;2.03;;;;;;;;;;5107042;28;20018;-54
2021/03/21 08:19:27;;;;;;;5.25;2.90;;;;;;;;;;5104900;28;20082;-53
2021/03/21 08:21:55;;;;;;;6.18;2.55;;;;;;;;;;5104242;28;20139;-53
2021/03/21 08:24:25;;;;;;;5.88;2.85;;;;;;;;;;5107443;28;20024;-54
2021/03/21 08:26:52;;;;;;;5.22;2.95;;;;;;;;;;5104382;28;20555;-54
2021/03/21 08:29:24;;;;;;;5.22;2.35;;;;;;;;;;5103460;28;20069;-54
2021/03/21 08:32:14;;;;;;;2.65;1.65;;;;;;;;;;5105432;28;20350;-53
2021/03/21 08:34:44;;;;;;;4.32;2.70;;;;;;;;;;5106630;28;20346;-53
2021/03/21 08:37:19;;;;;;;5.63;2.75;;;;;;;;;;5105276;28;20260;-54
2021/03/21 08:39:47;;;;;;;2.47;1.88;;;;;;;;;;5095672;28;20028;-53
2021/03/21 08:42:30;;;;;;;6.03;2.45;;;;;;;;;;5095300;28;20040;-53
2021/03/21 08:45:05;;;;;;;2.25;1.52;;;;;;;;;;5095315;28;20036;-54
2021/03/21 08:47:31;;;;;;;4.90;2.90;;;;;;;;;;5094951;28;20078;-53
2021/03/21 08:49:58;;;;;;;5.00;2.80;;;;;;;;;;5095053;28;20065;-54
2021/03/21 08:52:28;;;;;;;3.65;2.05;;;;;;;;;;5095705;28;20021;-53
2021/03/21 08:54:54;;;;;;;4.75;2.58;;;;;;;;;;5094971;28;20152;-54
2021/03/21 08:57:31;;;;;;;10.00;2.88;;;;;;;;;;5095464;28;20024;-53
2021/03/21 09:00:21;;;;;;;3.60;2.38;;;;;;;;;;5095515;28;20028;-53
2021/03/21 09:02:47;;;;;;;;;;;;;;;;;;5090807;28;20032;-54
2021/03/21 09:05:15;;;;;;;3.50;2.17;;;;;;;;;;5093938;28;20014;-53
2021/03/21 09:07:42;;;;;;;6.40;2.92;;;;;;;;;;5094743;28;20034;-54
2021/03/21 09:10:11;;;;;;;4.10;2.50;;;;;;;;;;5093943;28;20097;-53
2021/03/21 09:12:39;;;;;;;4.35;2.40;;;;;;;;;;5094978;28;20028;-53
2021/03/21 09:15:17;;;;;;;7.72;2.80;;;;;;;;;;5095096;28;20032;-53
2021/03/21 09:17:47;;;;;;;7.35;2.83;;;;;;;;;;5094915;28;20023;-54
2021/03/21 09:20:16;;;;;;;5.93;2.80;;;;;;;;;;5095068;28;20026;-53
2021/03/21 09:22:47;;;;;;;4.68;2.13;;;;;;;;;;5104920;28;20441;-53
2021/03/21 09:25:15;;;;;;;4.82;2.13;;;;;;;;;;5115186;28;20031;-53
2021/03/21 09:27:45;;;;;;;4.50;2.33;;;;;;;;;;5115015;28;20032;-54
2021/03/21 09:30:14;;;;;;;3.33;2.25;;;;;;;;;;5113912;28;20031;-53
2021/03/21 09:32:40;;;;;;;1.63;1.40;;;;;;;;;;5115259;28;20349;-53
2021/03/21 09:35:12;;;;;;;8.73;2.95;;;;;;;;;;5115157;28;20028;-53
2021/03/21 09:37:40;;;;;;;4.32;2.00;;;;;;;;;;5114760;28;20408;-53
2021/03/21 09:40:22;;;;;;;6.30;2.72;;;;;;;;;;5115138;28;20020;-54
2021/03/21 09:42:50;;;;;;;6.47;2.90;;;;;;;;;;5114734;28;20045;-53
2021/03/21 09:45:17;;;;;;;5.88;2.30;;;;;;;;;;5114815;28;20066;-53
2021/03/21 09:47:59;;;;;;;8.88;3.15;;;;;;;;;;5114699;27;20076;-53
2021/03/21 09:50:44;;;;;;;4.03;2.22;;;;;;;;;;5114793;28;20028;-53
2021/03/21 09:53:29;;;;;;;4.57;2.47;;;;;;;;;;5108106;28;20047;-53
2021/03/21 09:55:58;;;;;;;1.48;1.20;;;;;;;;;;5098868;28;20084;-53
2021/03/21 09:58:27;;;;;;;7.18;2.20;;;;;;;;;;5100738;28;20079;-53
2021/03/21 10:00:56;;;;;;;5.80;2.60;;;;;;;;;;5106097;28;20020;-54
2021/03/21 10:03:25;;;;;;;4.35;1.85;;;;;;;;;;5101837;28;20021;-54
2021/03/21 10:05:54;;;;;;;4.25;2.60;;;;;;;;;;5100323;28;20032;-54
2021/03/21 10:08:23;;;;;;;7.85;2.50;;;;;;;;;;5111250;28;20028;-54
2021/03/21 10:11:02;;;;;;;3.55;1.83;;;;;;;;;;5107516;28;20102;-53
2021/03/21 10:13:34;;;;;;;1.95;1.35;;;;;;;;;;5114327;28;20461;-53
2021/03/21 10:16:09;;;;;;;8.60;3.33;;;;;;;;;;5114092;28;20081;-53
2021/03/21 10:18:47;;;;;;;1.95;1.27;;;;;;;;;;5110453;28;20478;-53
2021/03/21 10:21:23;;;;;;;4.22;2.40;;;;;;;;;;5114321;28;20042;-53
2021/03/21 10:23:52;;;;;;;5.13;2.25;;;;;;;;;;5107586;28;20115;-53
2021/03/21 10:26:22;;;;;;;5.97;2.83;;;;;;;;;;5108046;28;20036;-53
2021/03/21 10:28:49;;;;;;;7.15;3.25;;;;;;;;;;5111301;28;20024;-53
2021/03/21 10:31:17;;;;;;;6.10;3.08;;;;;;;;;;5112494;28;20043;-54
2021/03/21 10:33:43;;;;;;;4.70;2.60;;;;;;;;;;5112312;28;20047;-53
2021/03/21 10:36:29;;;;;;;3.58;2.00;;;;;;;;;;5110484;28;20019;-53
2021/03/21 10:38:55;;;;;;;6.13;2.75;;;;;;;;;;5108781;28;20176;-53
2021/03/21 10:41:40;;;;;;;4.38;2.50;;;;;;;;;;5091572;28;20036;-53
2021/03/21 10:44:06;;;;;;;6.00;2.78;;;;;;;;;;5093720;28;20487;-53
2021/03/21 10:46:43;;;;;;;5.88;3.13;;;;;;;;;;5093440;28;20036;-53
2021/03/21 10:49:09;;;;;;;6.10;2.40;;;;;;;;;;5096181;28;20043;-53
2021/03/21 10:52:01;;;;;;;3.45;2.30;;;;;;;;;;5093207;28;20342;-53
2021/03/21 10:54:27;;;;;;;4.65;2.70;;;;;;;;;;5113041;28;20061;-53
2021/03/21 10:57:23;;;;;;;6.38;2.92;;;;;;;;;;5103724;28;20024;-53
2021/03/21 11:00:10;;;;;;;8.38;3.03;;;;;;;;;;5108508;28;20020;-53
2021/03/21 11:02:36;;;;;;;3.97;2.05;;;;;;;;;;5113861;28;20024;-54
2021/03/21 11:05:04;;;;;;;7.28;2.88;;;;;;;;;;5113453;28;20453;-54
2021/03/21 11:07:30;;;;;;;6.05;3.17;;;;;;;;;;5113406;28;20077;-53
2021/03/21 11:09:58;;;;;;;6.18;3.47;;;;;;;;;;5097128;28;20020;-53
2021/03/21 11:12:29;;;;;;;9.15;3.70;;;;;;;;;;5093492;28;20027;-55
2021/03/21 11:14:55;;;;;;;4.85;2.63;;;;;;;;;;5102408;28;20015;-55
2021/03/21 11:17:23;;;;;;;6.22;2.65;;;;;;;;;;5104494;27;20103;-55
2021/03/21 11:19:50;;;;;;;8.52;3.75;;;;;;;;;;5107514;28;20024;-55
2021/03/21 11:22:22;;;;;;;7.63;3.70;;;;;;;;;;5105534;28;20019;-55
2021/03/21 11:24:48;;;;;;;6.68;3.50;;;;;;;;;;5109474;27;20449;-55
2021/03/21 11:27:23;;;;;;;7.28;3.40;;;;;;;;;;5113455;28;20043;-55
2021/03/21 11:29:49;;;;;;;9.18;4.35;;;;;;;;;;5112094;27;20506;-55
2021/03/21 11:32:19;;;;;;;6.32;3.20;;;;;;;;;;5099647;28;20024;-55
2021/03/21 11:34:56;;;;;;;9.40;3.63;;;;;;;;;;5099550;28;20445;-55
2021/03/21 11:37:26;;;;;;;9.13;4.07;;;;;;;;;;5099607;28;20028;-55
2021/03/21 11:39:52;;;;;;;9.70;4.53;;;;;;;;;;5099761;28;20150;-55
2021/03/21 11:42:19;;;;;;;10.55;3.85;;;;;;;;;;5099695;28;20070;-55
2021/03/21 11:44:48;;;;;;;11.95;4.22;;;;;;;;;;5099766;28;20028;-55
2021/03/21 11:47:28;;;;;;;10.13;4.55;;;;;;;;;;5099055;28;20024;-55
2021/03/21 11:49:55;;;;;;;11.50;5.15;;;;;;;;;;5099363;28;20020;-55
2021/03/21 11:52:22;;;;;;;12.48;5.30;;;;;;;;;;5099376;28;20347;-55
2021/03/21 11:54:48;;;;;;;4.03;2.90;;;;;;;;;;5099839;28;20032;-55
2021/03/21 11:57:21;;;;;;;14.90;5.30;;;;;;;;;;5101841;28;20022;-55
2021/03/21 11:59:50;;;;;;;10.25;5.68;;;;;;;;;;5119822;27;20027;-55
2021/03/21 12:02:48;;;;;;;9.60;5.00;;;;;;;;;;5112869;27;20024;-55
2021/03/21 12:05:25;;;;;;;11.23;4.68;;;;;;;;;;5076658;28;20423;-55
2021/03/21 12:07:51;;;;;;;7.50;3.67;;;;;;;;;;5080182;28;20040;-55
2021/03/21 12:10:37;;;;;;;8.68;4.70;;;;;;;;;;5087267;28;20414;-55
2021/03/21 12:13:22;;;;;;;6.80;3.78;;;;;;;;;;5087321;28;20073;-55
2021/03/21 12:15:51;;;;;;;13.93;4.88;;;;;;;;;;5081527;28;20040;-55
2021/03/21 12:18:18;;;;;;;13.13;5.15;;;;;;;;;;5076291;28;20029;-55
2021/03/21 12:20:51;;;;;;;12.93;5.15;;;;;;;;;;5076494;28;20032;-55
2021/03/21 12:23:25;;;;;;;8.38;4.18;;;;;;;;;;5076364;28;20025;-55
2021/03/21 12:26:08;;;;;;;9.57;4.80;;;;;;;;;;5074600;28;20089;-55
2021/03/21 12:28:35;;;;;;;5.15;2.92;;;;;;;;;;5073064;28;20243;-55
2021/03/21 12:31:13;;;;;;;6.47;3.33;;;;;;;;;;5073010;28;20114;-55
2021/03/21 12:33:39;;;;;;;6.93;3.60;;;;;;;;;;5081719;28;20028;-55
2021/03/21 12:36:08;;;;;;;8.82;3.90;;;;;;;;;;5082456;28;20032;-55
2021/03/21 12:38:36;;;;;;;7.65;3.50;;;;;;;;;;5083930;28;20020;-55
2021/03/21 12:41:21;;;;;;;7.32;4.03;;;;;;;;;;5100922;28;20035;-55
2021/03/21 12:44:07;;;;;;;6.95;3.53;;;;;;;;;;5103404;28;20034;-55
2021/03/21 12:46:41;;;;;;;7.13;3.92;;;;;;;;;;5105204;28;20028;-55
2021/03/21 12:49:10;;;;;;;8.52;3.83;;;;;;;;;;5104783;28;20096;-55
2021/03/21 12:51:36;;;;;;;2.65;1.63;;;;;;;;;;5103748;28;20047;-55
2021/03/21 12:54:04;;;;;;;8.23;4.30;;;;;;;;;;5103926;28;20036;-55
2021/03/21 12:56:30;;;;;;;7.65;3.70;;;;;;;;;;5105976;28;20337;-55
2021/03/21 12:58:56;;;;;;;11.55;4.00;;;;;;;;;;5105552;28;20410;-55
2021/03/21 13:01:22;;;;;;;12.75;4.25;;;;;;;;;;5104510;28;20032;-55
2021/03/21 13:03:48;;;;;;;8.88;4.75;;;;;;;;;;5105606;28;20059;-56
2021/03/21 13:06:14;;;;;;;7.25;3.60;;;;;;;;;;5115364;28;20032;-56
2021/03/21 13:08:40;;;;;;;9.98;4.53;;;;;;;;;;5115234;27;20099;-55
2021/03/21 13:11:08;;;;;;;8.85;4.63;;;;;;;;;;5116139;27;20070;-55
2021/03/21 13:13:34;;;;;;;8.32;4.18;;;;;;;;;;5115703;28;20023;-55
2021/03/21 13:16:01;;;;;;;10.73;4.63;;;;;;;;;;5101941;28;20024;-55
2021/03/21 13:18:27;;;;;;;11.85;4.47;;;;;;;;;;5096221;28;20334;-55
2021/03/21 13:20:54;;;;;;;7.07;3.10;;;;;;;;;;5115552;28;20028;-55
2021/03/21 13:23:21;;;;;;;7.25;3.05;;;;;;;;;;5105772;28;20023;-55
2021/03/21 13:25:47;;;;;;;7.07;3.47;;;;;;;;;;5114771;28;20039;-54
2021/03/21 13:28:13;;;;;;;8.73;3.28;;;;;;;;;;5101590;28;20020;-54
2021/03/21 13:30:41;;;;;;;6.57;3.42;;;;;;;;;;5105016;28;20036;-54
2021/03/21 13:33:09;;;;;;;10.50;2.95;;;;;;;;;;5100248;28;20106;-54
2021/03/21 13:35:35;;;;;;;9.57;3.92;;;;;;;;;;5101263;28;20085;-54
2021/03/21 13:38:01;;;;;;;6.57;3.15;;;;;;;;;;5098966;28;20539;-54
2021/03/21 13:40:35;;;;;;;5.15;2.80;;;;;;;;;;5098648;28;20074;-54
2021/03/21 13:43:02;;;;;;;7.82;3.08;;;;;;;;;;5094558;28;20046;-54
2021/03/21 13:45:29;;;;;;;9.02;3.80;;;;;;;;;;5101983;28;20442;-55
2021/03/21 13:47:55;;;;;;;5.75;3.05;;;;;;;;;;5105848;28;20024;-54
2021/03/21 13:50:22;;;;;;;6.43;3.00;;;;;;;;;;5096567;28;20035;-55
2021/03/21 13:52:48;;;;;;;4.50;2.78;;;;;;;;;;5094631;28;20111;-54
2021/03/21 13:55:20;;;;;;;5.65;3.10;;;;;;;;;;5094504;28;20039;-54
2021/03/21 13:57:46;;;;;;;10.23;3.78;;;;;;;;;;5093640;28;20453;-55
2021/03/21 14:00:12;;;;;;;5.28;3.22;;;;;;;;;;5094075;28;20390;-54
2021/03/21 14:02:38;;;;;;;9.43;3.35;;;;;;;;;;5093599;28;20109;-55
2021/03/21 14:05:04;;;;;;;5.05;3.40;;;;;;;;;;5093646;28;20434;-54
2021/03/21 14:07:30;;;;;;;7.80;3.20;;;;;;;;;;5094052;28;20024;-54
2021/03/21 14:09:56;;;;;;;9.68;3.65;;;;;;;;;;5094030;28;20358;-54
2021/03/21 14:12:22;;;;;;;6.53;3.08;;;;;;;;;;5097424;28;20039;-54
2021/03/21 14:14:48;;;;;;;3.33;2.55;;;;;;;;;;5092858;28;20017;-54
2021/03/21 14:17:14;;;;;;;6.75;3.58;;;;;;;;;;5093057;28;20464;-54
2021/03/21 14:19:40;;;;;;;8.50;3.08;;;;;;;;;;5103271;28;20028;-53
2021/03/21 14:22:06;;;;;;;6.93;3.50;;;;;;;;;;5100563;28;20487;-52
2021/03/21 14:24:32;;;;;;;6.32;3.35;;;;;;;;;;5102242;28;20023;-52
2021/03/21 14:26:58;;;;;;;5.47;3.53;;;;;;;;;;5113787;28;20118;-52
2021/03/21 14:29:24;;;;;;;10.25;4.22;;;;;;;;;;5114232;28;20030;-52
2021/03/21 14:31:50;;;;;;;6.10;3.45;;;;;;;;;;5114063;28;20099;-52
2021/03/21 14:34:16;;;;;;;7.97;2.92;;;;;;;;;;5110384;28;20031;-52
2021/03/21 14:36:42;;;;;;;8.93;4.40;;;;;;;;;;5099099;28;20028;-52
2021/03/21 14:39:08;;;;;;;4.53;3.13;;;;;;;;;;5104595;28;20016;-52
2021/03/21 14:41:34;;;;;;;7.38;3.33;;;;;;;;;;5107150;28;20468;-53
2021/03/21 14:44:00;;;;;;;6.18;2.20;;;;;;;;;;5101976;28;20024;-52
2021/03/21 14:46:26;;;;;;;5.65;3.30;;;;;;;;;;5093851;28;20034;-52
2021/03/21 14:48:52;;;;;;;4.97;3.13;;;;;;;;;;5094839;28;20364;-54
2021/03/21 14:51:18;;;;;;;7.50;3.58;;;;;;;;;;5100250;28;20024;-54
2021/03/21 14:53:44;;;;;;;6.82;3.28;;;;;;;;;;5091660;28;20031;-55
2021/03/21 14:56:10;;;;;;;5.80;3.60;;;;;;;;;;5091694;28;20093;-55
2021/03/21 14:58:36;;;;;;;8.80;4.30;;;;;;;;;;5091092;28;20028;-55
2021/03/21 15:01:02;;;;;;;8.35;4.43;;;;;;;;;;5091421;28;20409;-54
2021/03/21 15:03:29;;;;;;;7.75;3.47;;;;;;;;;;5091522;28;20365;-55
2021/03/21 15:05:59;;;;;;;7.25;3.90;;;;;;;;;;5093239;28;20038;-55